Time;durP1;ratioP1;P1;durP2;ratioP2;P2;SDS_P1;SDS_P2;PMS_P1;PMS_P2;Temp;Humidity;BMP_temperature;BMP_pressure;BME280_temperature;BME280_humidity;BME280_pressure;Samples;Min_cycle;Max_cycle;Signal;HPM_P1;HPM_P2
2023/03/13 00:00:28;;;;;;;1999.90;999.90;;;;;;;;;;5031453;28;20477;-60
2023/03/13 00:02:55;;;;;;;1999.90;999.90;;;;;;;;;;5038651;28;20458;-61
2023/03/13 00:05:22;;;;;;;1999.90;999.90;;;;;;;;;;5045016;28;20464;-60
2023/03/13 00:07:51;;;;;;;1999.90;999.90;;;;;;;;;;5044711;28;20433;-61
2023/03/13 00:10:18;;;;;;;1999.90;999.90;;;;;;;;;;5018686;28;20485;-61
2023/03/13 00:12:45;;;;;;;1999.90;999.90;;;;;;;;;;5034894;28;20448;-60
2023/03/13 00:15:12;;;;;;;1999.90;999.90;;;;;;;;;;5037617;28;20458;-60
2023/03/13 00:17:39;;;;;;;1999.90;999.90;;;;;;;;;;5034220;28;20480;-61
2023/03/13 00:20:07;;;;;;;1999.90;999.90;;;;;;;;;;5034212;28;20485;-60
2023/03/13 00:22:35;;;;;;;1999.90;999.90;;;;;;;;;;5037767;28;20838;-61
2023/03/13 00:25:03;;;;;;;1999.90;999.90;;;;;;;;;;5028238;28;20458;-61
2023/03/13 00:27:32;;;;;;;1999.90;999.90;;;;;;;;;;5032717;28;20457;-61
2023/03/13 00:30:00;;;;;;;1999.90;999.90;;;;;;;;;;5036426;28;20477;-60
2023/03/13 00:32:27;;;;;;;1999.90;999.90;;;;;;;;;;5033993;28;20456;-60
2023/03/13 00:34:54;;;;;;;1999.90;999.90;;;;;;;;;;5028415;28;20980;-60
2023/03/13 00:37:21;;;;;;;1999.90;999.90;;;;;;;;;;5038672;28;20622;-60
2023/03/13 00:39:48;;;;;;;1999.90;999.90;;;;;;;;;;5039172;28;20478;-61
2023/03/13 00:42:16;;;;;;;1999.90;999.90;;;;;;;;;;5024678;28;20847;-60
2023/03/13 00:44:43;;;;;;;1999.90;999.90;;;;;;;;;;5043178;28;20465;-61
2023/03/13 00:47:10;;;;;;;1999.90;999.90;;;;;;;;;;5043225;28;20464;-60
2023/03/13 00:49:37;;;;;;;1999.90;999.90;;;;;;;;;;5039548;28;20458;-61
2023/03/13 00:52:05;;;;;;;1999.90;999.90;;;;;;;;;;5035854;28;20461;-60
2023/03/13 00:54:32;;;;;;;1999.90;999.90;;;;;;;;;;5031117;28;20885;-60
2023/03/13 00:56:59;;;;;;;1999.90;999.90;;;;;;;;;;5032118;28;20540;-60
2023/03/13 00:59:26;;;;;;;;;;;;;;;;;;5030516;28;20689;-61
2023/03/13 01:01:53;;;;;;;;;;;;;;;;;;5036451;28;19928;-60
2023/03/13 01:04:19;;;;;;;;;;;;;;;;;;5029289;28;19925;-60
2023/03/13 01:06:46;;;;;;;;;;;;;;;;;;5037851;28;19930;-61
2023/03/13 01:09:13;;;;;;;;;;;;;;;;;;5040979;28;19967;-61
2023/03/13 01:11:40;;;;;;;;;;;;;;;;;;5039538;28;19928;-61
2023/03/13 01:14:07;;;;;;;;;;;;;;;;;;5032440;28;19928;-60
2023/03/13 01:16:34;;;;;;;;;;;;;;;;;;5037739;28;20305;-60
2023/03/13 01:19:01;;;;;;;;;;;;;;;;;;5044282;28;19931;-60
2023/03/13 01:21:28;;;;;;;;;;;;;;;;;;5053400;28;20302;-60
2023/03/13 01:23:55;;;;;;;;;;;;;;;;;;5035724;28;19928;-60
2023/03/13 01:26:21;;;;;;;;;;;;;;;;;;5035580;28;20425;-60
2023/03/13 01:28:48;;;;;;;;;;;;;;;;;;5035676;28;19921;-60
2023/03/13 01:31:16;;;;;;;;;;;;;;;;;;5034572;28;19921;-61
2023/03/13 01:33:43;;;;;;;;;;;;;;;;;;5025281;28;19921;-61
2023/03/13 01:36:10;;;;;;;;;;;;;;;;;;5034945;28;19921;-60
2023/03/13 01:38:37;;;;;;;;;;;;;;;;;;5036430;28;19921;-61
2023/03/13 01:41:03;;;;;;;;;;;;;;;;;;5033608;28;19921;-60
2023/03/13 01:43:30;;;;;;;;;;;;;;;;;;5042418;28;19929;-60
2023/03/13 01:45:57;;;;;;;;;;;;;;;;;;5030246;28;20303;-60
2023/03/13 01:48:24;;;;;;;;;;;;;;;;;;5046607;28;19927;-62
2023/03/13 01:50:51;;;;;;;;;;;;;;;;;;5041881;28;19921;-62
2023/03/13 01:53:18;;;;;;;;;;;;;;;;;;5041046;28;19921;-60
2023/03/13 01:55:45;;;;;;;;;;;;;;;;;;5035927;28;20402;-62
2023/03/13 01:58:12;;;;;;;;;;;;;;;;;;5028701;28;19922;-62
2023/03/13 02:00:41;;;;;;;;;;;;;;;;;;5042161;28;19927;-62
2023/03/13 02:03:08;;;;;;;;;;;;;;;;;;5041412;28;19931;-63
2023/03/13 02:05:35;;;;;;;;;;;;;;;;;;5037942;28;19944;-60
2023/03/13 02:08:01;;;;;;;;;;;;;;;;;;5035783;28;19933;-62
2023/03/13 02:10:28;;;;;;;;;;;;;;;;;;5038168;28;20271;-62
2023/03/13 02:12:55;;;;;;;;;;;;;;;;;;5039424;28;19932;-60
2023/03/13 02:15:22;;;;;;;;;;;;;;;;;;5036515;28;20291;-62
2023/03/13 02:17:49;;;;;;;;;;;;;;;;;;5037630;28;19921;-62
2023/03/13 02:20:16;;;;;;;;;;;;;;;;;;5048211;28;19921;-61
2023/03/13 02:22:43;;;;;;;;;;;;;;;;;;5039631;28;19921;-61
2023/03/13 02:25:10;;;;;;;;;;;;;;;;;;5038856;28;19928;-62
2023/03/13 02:27:37;;;;;;;;;;;;;;;;;;5044634;28;19921;-62
2023/03/13 02:30:04;;;;;;;;;;;;;;;;;;5037854;28;19927;-62
2023/03/13 02:32:31;;;;;;;;;;;;;;;;;;5031604;28;19921;-62
2023/03/13 02:34:57;;;;;;;;;;;;;;;;;;5045829;28;19956;-61
2023/03/13 02:37:24;;;;;;;;;;;;;;;;;;5034908;28;20309;-62
2023/03/13 02:39:51;;;;;;;;;;;;;;;;;;5033877;28;20004;-61
2023/03/13 02:42:18;;;;;;;;;;;;;;;;;;5045424;28;19921;-61
2023/03/13 02:44:45;;;;;;;;;;;;;;;;;;5042236;28;19921;-61
2023/03/13 02:47:12;;;;;;;;;;;;;;;;;;5043008;28;19952;-61
2023/03/13 02:49:39;;;;;;;;;;;;;;;;;;5038143;28;19936;-62
2023/03/13 02:52:06;;;;;;;;;;;;;;;;;;5041901;28;19921;-61
2023/03/13 02:54:33;;;;;;;;;;;;;;;;;;5030304;28;19924;-61
2023/03/13 02:57:00;;;;;;;;;;;;;;;;;;5043024;28;19921;-61
2023/03/13 02:59:26;;;;;;;;;;;;;;;;;;5039893;28;19928;-61
2023/03/13 03:01:53;;;;;;;;;;;;;;;;;;5024970;28;19928;-62
2023/03/13 03:04:20;;;;;;;;;;;;;;;;;;5044681;28;19928;-61
2023/03/13 03:06:47;;;;;;;;;;;;;;;;;;5024336;28;19925;-62
2023/03/13 03:09:14;;;;;;;;;;;;;;;;;;5045331;28;19932;-62
2023/03/13 03:11:41;;;;;;;;;;;;;;;;;;5039365;28;20329;-62
2023/03/13 03:14:08;;;;;;;;;;;;;;;;;;5037495;28;19925;-61
2023/03/13 03:16:35;;;;;;;;;;;;;;;;;;5043893;28;20289;-61
2023/03/13 03:19:02;;;;;;;;;;;;;;;;;;5040414;28;19924;-61
2023/03/13 03:21:29;;;;;;;;;;;;;;;;;;5038345;28;20367;-62
2023/03/13 03:23:56;;;;;;;;;;;;;;;;;;5013661;28;19921;-62
2023/03/13 03:26:23;;;;;;;;;;;;;;;;;;5041575;28;20382;-62
2023/03/13 03:28:49;;;;;;;;;;;;;;;;;;5038814;28;19921;-62
2023/03/13 03:31:16;;;;;;;;;;;;;;;;;;5024908;28;19929;-61
2023/03/13 03:33:43;;;;;;;;;;;;;;;;;;5040695;28;19928;-61
2023/03/13 03:36:10;;;;;;;;;;;;;;;;;;5032535;28;19928;-61
2023/03/13 03:38:38;;;;;;;;;;;;;;;;;;5030893;28;20390;-62
2023/03/13 03:41:05;;;;;;;;;;;;;;;;;;5034895;28;19967;-61
2023/03/13 03:43:32;;;;;;;;;;;;;;;;;;5038728;28;20313;-61
2023/03/13 03:45:59;;;;;;;;;;;;;;;;;;5043156;28;19921;-62
2023/03/13 03:48:26;;;;;;;;;;;;;;;;;;5037915;28;19920;-61
2023/03/13 03:50:53;;;;;;;;;;;;;;;;;;5040674;28;19921;-62
2023/03/13 03:53:19;;;;;;;;;;;;;;;;;;5036252;28;19925;-62
2023/03/13 03:55:46;;;;;;;;;;;;;;;;;;5039026;28;19928;-62
2023/03/13 03:58:13;;;;;;;;;;;;;;;;;;5042174;28;19936;-61
2023/03/13 04:00:40;;;;;;;;;;;;;;;;;;5039232;28;19940;-61
2023/03/13 04:03:07;;;;;;;;;;;;;;;;;;5037061;28;20048;-62
2023/03/13 04:05:34;;;;;;;;;;;;;;;;;;5035053;28;19936;-60
2023/03/13 04:08:01;;;;;;;;;;;;;;;;;;5034268;28;19925;-60
2023/03/13 04:10:28;;;;;;;;;;;;;;;;;;5038589;28;19921;-60
2023/03/13 04:12:55;;;;;;;;;;;;;;;;;;5033936;28;20193;-60
2023/03/13 04:15:21;;;;;;;;;;;;;;;;;;5040647;28;19921;-60
2023/03/13 04:17:48;;;;;;;;;;;;;;;;;;5038378;28;19928;-60
2023/03/13 04:20:15;;;;;;;;;;;;;;;;;;5046582;28;19921;-60
2023/03/13 04:22:42;;;;;;;;;;;;;;;;;;5039352;28;19925;-60
2023/03/13 04:25:09;;;;;;;;;;;;;;;;;;5038135;28;19921;-60
2023/03/13 04:27:36;;;;;;;;;;;;;;;;;;5034088;28;19933;-60
2023/03/13 04:30:03;;;;;;;;;;;;;;;;;;5038897;28;19921;-60
2023/03/13 04:32:30;;;;;;;;;;;;;;;;;;5040893;28;19920;-62
2023/03/13 04:34:57;;;;;;;;;;;;;;;;;;5033196;28;19921;-61
2023/03/13 04:37:24;;;;;;;;;;;;;;;;;;5043127;28;19920;-61
2023/03/13 04:39:51;;;;;;;;;;;;;;;;;;5037523;28;19929;-61
2023/03/13 04:42:18;;;;;;;;;;;;;;;;;;5041215;28;19921;-61
2023/03/13 04:44:45;;;;;;;;;;;;;;;;;;5038004;28;20378;-62
2023/03/13 04:47:12;;;;;;;;;;;;;;;;;;5036992;28;19931;-61
2023/03/13 04:49:39;;;;;;;;;;;;;;;;;;5017028;28;19925;-62
2023/03/13 04:52:06;;;;;;;;;;;;;;;;;;5063774;22;19928;-61
2023/03/13 04:54:32;;;;;;;;;;;;;;;;;;5051484;28;19928;-61
2023/03/13 04:56:59;;;;;;;;;;;;;;;;;;5055905;28;19921;-61
2023/03/13 04:59:26;;;;;;;;;;;;;;;;;;5048938;28;19928;-61
2023/03/13 05:01:53;;;;;;;;;;;;;;;;;;5054842;28;19924;-61
2023/03/13 05:04:20;;;;;;;;;;;;;;;;;;5053375;28;19927;-61
2023/03/13 05:06:47;;;;;;;;;;;;;;;;;;5055253;28;20379;-61
2023/03/13 05:09:14;;;;;;;;;;;;;;;;;;5052802;28;19936;-61
2023/03/13 05:11:41;;;;;;;;;;;;;;;;;;5051117;28;19921;-61
2023/03/13 05:14:10;;;;;;;;;;;;;;;;;;5051692;28;19971;-61
2023/03/13 05:16:37;;;;;;;;;;;;;;;;;;5054707;28;19921;-61
2023/03/13 05:19:04;;;;;;;;;;;;;;;;;;5054176;28;19925;-61
2023/03/13 05:21:30;;;;;;;;;;;;;;;;;;5053139;28;19928;-61
2023/03/13 05:23:57;;;;;;;;;;;;;;;;;;5054371;28;20388;-61
2023/03/13 05:26:24;;;;;;;;;;;;;;;;;;5055517;28;19921;-60
2023/03/13 05:28:51;;;;;;;;;;;;;;;;;;5053269;28;20401;-61
2023/03/13 05:31:18;;;;;;;;;;;;;;;;;;5052952;28;19920;-61
2023/03/13 05:33:45;;;;;;;;;;;;;;;;;;5054497;28;20386;-61
2023/03/13 05:36:12;;;;;;;;;;;;;;;;;;5040372;28;19921;-61
2023/03/13 05:38:39;;;;;;;;;;;;;;;;;;5053373;28;19928;-61
2023/03/13 05:41:06;;;;;;;;;;;;;;;;;;5053829;28;19921;-61
2023/03/13 05:43:33;;;;;;;;;;;;;;;;;;5053876;28;20309;-61
2023/03/13 05:45:59;;;;;;;;;;;;;;;;;;5051313;28;19921;-61
2023/03/13 05:48:26;;;;;;;;;;;;;;;;;;5053509;28;19943;-62
2023/03/13 05:50:55;;;;;;;;;;;;;;;;;;5053524;28;20015;-61
2023/03/13 05:53:21;;;;;;;;;;;;;;;;;;5052093;28;19927;-61
2023/03/13 05:55:48;;;;;;;;;;;;;;;;;;5051433;28;19920;-61
2023/03/13 05:58:15;;;;;;;;;;;;;;;;;;5054820;28;20301;-61
2023/03/13 06:00:42;;;;;;;;;;;;;;;;;;5053155;28;19920;-61
2023/03/13 06:03:09;;;;;;;;;;;;;;;;;;5052267;28;19925;-61
2023/03/13 06:05:36;;;;;;;;;;;;;;;;;;5046708;28;19921;-61
2023/03/13 06:08:03;;;;;;;;;;;;;;;;;;5051983;28;20309;-61
2023/03/13 06:10:30;;;;;;;;;;;;;;;;;;5052664;28;19946;-61
2023/03/13 06:12:57;;;;;;;;;;;;;;;;;;5053591;28;20302;-61
2023/03/13 06:15:23;;;;;;;;;;;;;;;;;;5049976;28;19921;-61
2023/03/13 06:17:50;;;;;;;;;;;;;;;;;;5051724;28;19944;-61
2023/03/13 06:20:17;;;;;;;;;;;;;;;;;;5053945;28;19920;-61
2023/03/13 06:22:44;;;;;;;;;;;;;;;;;;5052183;28;19924;-61
2023/03/13 06:25:11;;;;;;;;;;;;;;;;;;5053827;28;19928;-61
2023/03/13 06:27:38;;;;;;;;;;;;;;;;;;5053145;28;19921;-61
2023/03/13 06:30:05;;;;;;;;;;;;;;;;;;5053436;28;19943;-61
2023/03/13 06:32:32;;;;;;;;;;;;;;;;;;5049502;28;19920;-62
2023/03/13 06:34:59;;;;;;;;;;;;;;;;;;5041081;28;19928;-61
2023/03/13 06:37:25;;;;;;;;;;;;;;;;;;5049644;28;19925;-61
2023/03/13 06:39:52;;;;;;;;;;;;;;;;;;5048343;28;19921;-62
2023/03/13 06:42:19;;;;;;;;;;;;;;;;;;5046140;28;19921;-61
2023/03/13 06:44:46;;;;;;;;;;;;;;;;;;5050605;28;19933;-60
2023/03/13 06:47:16;;;;;;;;;;;;;;;;;;5046816;28;21449;-61
2023/03/13 06:49:44;;;;;;;;;;;;;;;;;;5051177;28;20433;-61
2023/03/13 06:52:11;;;;;;;;;;;;;;;;;;5044915;28;19921;-61
2023/03/13 06:54:38;;;;;;;;;;;;;;;;;;5049596;28;20322;-62
2023/03/13 06:57:09;;;;;;;;;;;;;;;;;;5050099;28;19952;-63
2023/03/13 06:59:36;;;;;;;;;;;;;;;;;;5052229;28;19927;-62
2023/03/13 07:02:04;;;;;;;;;;;;;;;;;;5050916;28;19966;-61
2023/03/13 07:04:31;;;;;;;;;;;;;;;;;;5052504;28;20290;-61
2023/03/13 07:07:07;;;;;;;;;;;;;;;;;;5048705;28;19944;-61
2023/03/13 07:09:35;;;;;;;;;;;;;;;;;;5048668;28;20541;-61
2023/03/13 07:12:03;;;;;;;;;;;;;;;;;;5045347;28;19921;-61
2023/03/13 07:14:30;;;;;;;;;;;;;;;;;;5050468;28;19925;-61
2023/03/13 07:16:57;;;;;;;;;;;;;;;;;;5042597;28;19944;-61
2023/03/13 07:19:25;;;;;;;;;;;;;;;;;;5041396;28;20379;-61
2023/03/13 07:24:36;;;;;;;;;;;;;;;;;;5031613;28;21353;-61
2023/03/13 07:27:03;;;;;;;;;;;;;;;;;;5050060;28;19964;-61
2023/03/13 07:29:30;;;;;;;;;;;;;;;;;;5051875;28;19956;-61
2023/03/13 07:31:57;;;;;;;;;;;;;;;;;;5051576;28;19966;-61
2023/03/13 07:34:25;;;;;;;;;;;;;;;;;;5050481;28;20003;-61
2023/03/13 07:36:51;;;;;;;;;;;;;;;;;;5048933;28;19924;-63
2023/03/13 07:39:18;;;;;;;;;;;;;;;;;;5047200;28;19920;-61
2023/03/13 07:41:45;;;;;;;;;;;;;;;;;;5052428;28;19928;-61
2023/03/13 07:44:12;;;;;;;;;;;;;;;;;;5047929;28;19931;-62
2023/03/13 07:46:39;;;;;;;;;;;;;;;;;;5047968;28;19921;-62
2023/03/13 07:49:06;;;;;;;;;;;;;;;;;;5041353;28;19929;-63
2023/03/13 07:51:33;;;;;;;;;;;;;;;;;;5051164;28;19920;-61
2023/03/13 07:54:00;;;;;;;;;;;;;;;;;;5049511;28;19939;-62
2023/03/13 07:56:27;;;;;;;;;;;;;;;;;;5041533;28;19967;-62
2023/03/13 07:58:54;;;;;;;;;;;;;;;;;;5044910;28;19921;-63
2023/03/13 08:01:21;;;;;;;;;;;;;;;;;;5048093;28;19920;-61
2023/03/13 08:03:49;;;;;;;;;;;;;;;;;;5049742;28;19927;-61
2023/03/13 08:06:16;;;;;;;;;;;;;;;;;;5052309;28;19925;-62
2023/03/13 08:08:43;;;;;;;;;;;;;;;;;;5052579;28;19924;-62
2023/03/13 08:11:10;;;;;;;;;;;;;;;;;;5049935;28;20004;-62
2023/03/13 08:13:37;;;;;;;;;;;;;;;;;;5050208;28;20381;-62
2023/03/13 08:16:04;;;;;;;;;;;;;;;;;;5052409;28;19921;-62
2023/03/13 08:18:33;;;;;;;;;;;;;;;;;;5052301;28;19925;-62
2023/03/13 08:21:00;;;;;;;;;;;;;;;;;;5047109;28;19920;-62
2023/03/13 08:23:27;;;;;;;;;;;;;;;;;;5051940;28;19950;-62
2023/03/13 08:25:54;;;;;;;;;;;;;;;;;;5049574;28;19921;-62
2023/03/13 08:28:21;;;;;;;;;;;;;;;;;;5050848;28;20433;-62
2023/03/13 08:30:48;;;;;;;;;;;;;;;;;;5038208;28;19921;-62
2023/03/13 08:33:15;;;;;;;;;;;;;;;;;;5049342;28;19921;-60
2023/03/13 08:35:42;;;;;;;;;;;;;;;;;;5050640;28;19921;-62
2023/03/13 08:38:08;;;;;;;;;;;;;;;;;;5049234;28;20011;-62
2023/03/13 08:40:35;;;;;;;;;;;;;;;;;;5049704;28;19925;-62
2023/03/13 08:43:02;;;;;;;;;;;;;;;;;;5048447;28;19941;-58
2023/03/13 08:45:29;;;;;;;;;;;;;;;;;;5051716;28;19931;-63
2023/03/13 08:47:59;;;;;;;;;;;;;;;;;;5044074;28;19921;-67
2023/03/13 08:50:26;;;;;;;;;;;;;;;;;;5045446;28;19960;-65
2023/03/13 08:52:53;;;;;;;;;;;;;;;;;;5048088;28;19928;-63
2023/03/13 08:55:20;;;;;;;;;;;;;;;;;;5051956;28;19921;-58
2023/03/13 08:57:50;;;;;;;;;;;;;;;;;;5051753;28;19921;-64
2023/03/13 09:00:17;;;;;;;;;;;;;;;;;;5051734;28;19921;-62
2023/03/13 09:02:44;;;;;;;;;;;;;;;;;;5046996;28;20337;-63
2023/03/13 09:05:11;;;;;;;;;;;;;;;;;;5051661;28;19924;-62
2023/03/13 09:07:39;;;;;;;;;;;;;;;;;;5050285;28;19921;-62
2023/03/13 09:10:06;;;;;;;;;;;;;;;;;;5049711;28;19974;-62
2023/03/13 09:12:33;;;;;;;;;;;;;;;;;;5051341;28;20267;-62
2023/03/13 09:15:00;;;;;;;;;;;;;;;;;;5049968;28;19974;-62
2023/03/13 09:17:27;;;;;;;;;;;;;;;;;;5050015;28;19921;-62
2023/03/13 09:19:54;;;;;;;;;;;;;;;;;;5051634;28;19920;-61
2023/03/13 09:22:23;;;;;;;;;;;;;;;;;;5049841;28;19920;-62
2023/03/13 09:24:50;;;;;;;;;;;;;;;;;;5050911;28;19920;-62
2023/03/13 09:27:19;;;;;;;;;;;;;;;;;;5052067;28;19928;-63
2023/03/13 09:29:47;;;;;;;;;;;;;;;;;;5047328;28;19928;-63
2023/03/13 09:32:15;;;;;;;;;;;;;;;;;;5050422;28;19935;-59
2023/03/13 09:34:42;;;;;;;;;;;;;;;;;;5050581;28;19951;-59
2023/03/13 09:37:10;;;;;;;;;;;;;;;;;;5047122;28;19921;-60
2023/03/13 09:39:37;;;;;;;;;;;;;;;;;;5051234;28;19943;-59
2023/03/13 09:42:05;;;;;;;;;;;;;;;;;;5052715;28;19921;-59
2023/03/13 09:44:32;;;;;;;;;;;;;;;;;;5051112;28;19974;-59
2023/03/13 09:47:00;;;;;;;;;;;;;;;;;;5052637;28;19928;-65
2023/03/13 09:49:31;;;;;;;;;;;;;;;;;;5049153;28;19928;-61
2023/03/13 09:52:08;;;;;;;;;;;;;;;;;;5055562;28;19990;-64
2023/03/13 09:54:42;;;;;;;;;;;;;;;;;;5049481;28;19925;-63
2023/03/13 09:57:15;;;;;;;;;;;;;;;;;;5043516;28;20032;-63
2023/03/13 09:59:45;;;;;;;;;;;;;;;;;;5053894;28;20015;-62
2023/03/13 10:02:12;;;;;;;;;;;;;;;;;;5047965;28;20400;-63
2023/03/13 10:04:39;;;;;;;;;;;;;;;;;;5052452;28;19931;-61
2023/03/13 10:07:06;;;;;;;;;;;;;;;;;;5048123;28;20425;-62
2023/03/13 10:09:36;;;;;;;;;;;;;;;;;;5048109;28;19921;-60
2023/03/13 10:12:03;;;;;;;;;;;;;;;;;;5047459;28;19952;-60
2023/03/13 10:14:31;;;;;;;;;;;;;;;;;;5047503;28;19978;-61
2023/03/13 10:16:58;;;;;;;;;;;;;;;;;;5045441;28;19920;-58
2023/03/13 10:19:25;;;;;;;;;;;;;;;;;;5051543;28;19928;-58
2023/03/13 10:21:52;;;;;;;;;;;;;;;;;;5052293;28;19928;-58
2023/03/13 10:24:19;;;;;;;;;;;;;;;;;;5053265;28;20314;-60
2023/03/13 10:26:47;;;;;;;;;;;;;;;;;;5047453;28;19925;-59
2023/03/13 10:29:14;;;;;;;;;;;;;;;;;;5048912;28;19936;-60
2023/03/13 10:31:41;;;;;;;;;;;;;;;;;;5050590;28;19920;-62
2023/03/13 10:34:08;;;;;;;;;;;;;;;;;;5048744;28;19920;-65
2023/03/13 10:36:35;;;;;;;;;;;;;;;;;;5051662;28;19983;-64
2023/03/13 10:39:03;;;;;;;;;;;;;;;;;;5052068;28;20015;-62
2023/03/13 10:41:30;;;;;;;;;;;;;;;;;;5050069;28;20341;-61
2023/03/13 10:43:57;;;;;;;;;;;;;;;;;;5049690;28;20417;-61
2023/03/13 10:46:25;;;;;;;;;;;;;;;;;;5050764;28;19921;-60
2023/03/13 10:48:52;;;;;;;;;;;;;;;;;;5052026;28;19920;-62
2023/03/13 10:51:18;;;;;;;;;;;;;;;;;;5056705;22;19921;-63
2023/03/13 10:53:45;;;;;;;;;;;;;;;;;;5039100;28;19921;-63
2023/03/13 10:56:12;;;;;;;;;;;;;;;;;;5030969;28;19928;-64
2023/03/13 10:58:39;;;;;;;;;;;;;;;;;;5025903;28;20386;-63
2023/03/13 11:01:06;;;;;;;;;;;;;;;;;;5034109;28;19926;-63
2023/03/13 11:03:33;;;;;;;;;;;;;;;;;;5025064;28;19929;-63
2023/03/13 11:06:00;;;;;;;;;;;;;;;;;;5020477;28;19921;-63
2023/03/13 11:08:27;;;;;;;;;;;;;;;;;;5010065;28;19921;-64
2023/03/13 11:10:54;;;;;;;;;;;;;;;;;;5023378;28;19921;-65
2023/03/13 11:13:21;;;;;;;;;;;;;;;;;;5020975;28;20426;-65
2023/03/13 11:15:48;;;;;;;;;;;;;;;;;;5019002;28;19925;-65
2023/03/13 11:18:15;;;;;;;;;;;;;;;;;;5019745;28;20371;-60
2023/03/13 11:20:42;;;;;;;;;;;;;;;;;;5014041;28;19932;-60
2023/03/13 11:23:09;;;;;;;;;;;;;;;;;;5024441;28;19928;-60
2023/03/13 11:25:36;;;;;;;;;;;;;;;;;;5033135;28;19975;-60
2023/03/13 11:28:03;;;;;;;;;;;;;;;;;;5028322;28;19925;-61
2023/03/13 11:30:30;;;;;;;;;;;;;;;;;;5017990;28;19996;-60
2023/03/13 11:32:57;;;;;;;;;;;;;;;;;;5015649;28;19948;-63
2023/03/13 11:35:24;;;;;;;;;;;;;;;;;;5011628;28;19921;-60
2023/03/13 11:37:51;;;;;;;;;;;;;;;;;;5010894;28;19925;-60
2023/03/13 11:40:19;;;;;;;;;;;;;;;;;;5012598;28;19931;-60
2023/03/13 11:42:46;;;;;;;;;;;;;;;;;;5024644;28;19921;-60
2023/03/13 11:45:13;;;;;;;;;;;;;;;;;;5012816;28;20368;-62
2023/03/13 11:47:40;;;;;;;;;;;;;;;;;;5013347;28;19922;-61
2023/03/13 11:50:06;;;;;;;;;;;;;;;;;;5010847;28;20378;-61
2023/03/13 11:52:33;;;;;;;;;;;;;;;;;;5020717;28;19929;-61
2023/03/13 11:55:00;;;;;;;;;;;;;;;;;;5017153;28;20397;-63
2023/03/13 11:57:28;;;;;;;;;;;;;;;;;;5024100;28;19928;-62
2023/03/13 11:59:55;;;;;;;;;;;;;;;;;;5030753;28;19927;-62
2023/03/13 12:02:22;;;;;;;;;;;;;;;;;;5010835;28;19928;-62
2023/03/13 12:04:49;;;;;;;;;;;;;;;;;;5014478;28;19928;-62
2023/03/13 12:07:16;;;;;;;;;;;;;;;;;;5026384;28;19921;-62
2023/03/13 12:09:43;;;;;;;;;;;;;;;;;;5020579;28;20298;-62
2023/03/13 12:12:10;;;;;;;;;;;;;;;;;;5012496;28;19921;-62
2023/03/13 12:14:37;;;;;;;;;;;;;;;;;;5009355;28;20383;-63
2023/03/13 12:17:04;;;;;;;;;;;;;;;;;;5012250;28;19937;-64
2023/03/13 12:19:30;;;;;;;;;;;;;;;;;;5013626;28;20383;-64
2023/03/13 12:21:57;;;;;;;;;;;;;;;;;;5017397;28;19921;-64
2023/03/13 12:24:25;;;;;;;;;;;;;;;;;;5021298;28;20272;-62
2023/03/13 12:26:53;;;;;;;;;;;;;;;;;;5017869;28;19982;-61
2023/03/13 12:29:20;;;;;;;;;;;;;;;;;;5015559;28;19928;-61
2023/03/13 12:31:47;;;;;;;;;;;;;;;;;;5010746;28;19921;-67
2023/03/13 12:34:13;;;;;;;;;;;;;;;;;;5018715;28;19929;-67
2023/03/13 12:36:40;;;;;;;;;;;;;;;;;;5013888;28;20273;-67
2023/03/13 12:39:07;;;;;;;;;;;;;;;;;;5017823;28;19921;-65
2023/03/13 12:41:34;;;;;;;;;;;;;;;;;;5003189;28;19944;-64
2023/03/13 12:44:01;;;;;;;;;;;;;;;;;;5010446;28;19928;-65
2023/03/13 12:46:28;;;;;;;;;;;;;;;;;;5013214;28;20375;-65
2023/03/13 12:48:55;;;;;;;;;;;;;;;;;;5017693;28;19922;-66
2023/03/13 12:51:22;;;;;;;;;;;;;;;;;;5010591;28;19921;-67
2023/03/13 12:53:49;;;;;;;;;;;;;;;;;;5009491;28;19962;-64
2023/03/13 12:56:16;;;;;;;;;;;;;;;;;;5008883;28;20395;-65
2023/03/13 12:58:43;;;;;;;;;;;;;;;;;;5014393;28;19921;-62
2023/03/13 13:01:10;;;;;;;;;;;;;;;;;;5017776;28;19925;-62
2023/03/13 13:03:37;;;;;;;;;;;;;;;;;;4992733;28;19932;-65
2023/03/13 13:06:04;;;;;;;;;;;;;;;;;;4997797;28;19925;-64
2023/03/13 13:08:31;;;;;;;;;;;;;;;;;;5007689;28;19921;-63
2023/03/13 13:10:58;;;;;;;;;;;;;;;;;;5017967;28;19925;-63
2023/03/13 13:13:25;;;;;;;;;;;;;;;;;;4995079;28;20298;-63
2023/03/13 13:15:52;;;;;;;;;;;;;;;;;;5014135;28;19921;-63
2023/03/13 13:18:19;;;;;;;;;;;;;;;;;;5009216;28;19952;-63
2023/03/13 13:20:46;;;;;;;;;;;;;;;;;;5022181;28;19936;-63
2023/03/13 13:23:12;;;;;;;;;;;;;;;;;;5004915;28;19928;-63
2023/03/13 13:25:39;;;;;;;;;;;;;;;;;;5020177;28;20488;-63
2023/03/13 13:28:06;;;;;;;;;;;;;;;;;;5012596;28;19940;-63
2023/03/13 13:30:33;;;;;;;;;;;;;;;;;;5020061;28;19925;-63
2023/03/13 13:33:00;;;;;;;;;;;;;;;;;;5028173;28;19975;-63
2023/03/13 13:35:27;;;;;;;;;;;;;;;;;;5014476;28;20264;-62
2023/03/13 13:37:54;;;;;;;;;;;;;;;;;;5015584;28;19928;-63
2023/03/13 13:40:21;;;;;;;;;;;;;;;;;;5004217;28;20306;-63
2023/03/13 13:42:48;;;;;;;;;;;;;;;;;;5002703;28;20115;-63
2023/03/13 13:45:14;;;;;;;;;;;;;;;;;;5008484;28;20301;-63
2023/03/13 13:47:41;;;;;;;;;;;;;;;;;;5014546;28;19922;-63
2023/03/13 13:50:09;;;;;;;;;;;;;;;;;;5019642;28;20421;-63
2023/03/13 13:52:39;;;;;;;1999.90;999.90;;;;;;;;;;5015413;28;20976;-63
2023/03/13 13:55:21;;;;;;;1999.90;999.90;;;;;;;;;;5004327;28;20212;-63
2023/03/13 13:57:50;;;;;;;1999.90;999.90;;;;;;;;;;5019108;28;20454;-63
2023/03/13 14:00:19;;;;;;;1999.90;999.90;;;;;;;;;;5014084;28;20204;-63
2023/03/13 14:02:50;;;;;;;1999.90;999.90;;;;;;;;;;5009884;28;20577;-62
2023/03/13 14:05:18;;;;;;;1999.90;999.90;;;;;;;;;;5018493;28;20230;-63
2023/03/13 14:07:56;;;;;;;1999.90;999.90;;;;;;;;;;5009562;28;20290;-63
2023/03/13 14:10:41;;;;;;;1999.90;999.90;;;;;;;;;;5000268;28;20192;-63
2023/03/13 14:13:12;;;;;;;1999.90;999.90;;;;;;;;;;5015872;28;20203;-61
2023/03/13 14:15:42;;;;;;;1999.90;999.90;;;;;;;;;;5009303;28;20549;-66
2023/03/13 14:18:12;;;;;;;1999.90;999.90;;;;;;;;;;5007682;28;20206;-67
2023/03/13 14:20:39;;;;;;;1999.90;999.90;;;;;;;;;;5006239;28;20226;-67
2023/03/13 14:23:09;;;;;;;1999.90;999.90;;;;;;;;;;5009047;28;20574;-66
2023/03/13 14:25:43;;;;;;;1999.90;999.90;;;;;;;;;;5014256;28;20211;-67
2023/03/13 14:28:18;;;;;;;1999.90;999.90;;;;;;;;;;5014156;28;20196;-67
2023/03/13 14:30:46;;;;;;;1999.90;999.90;;;;;;;;;;4999014;28;20581;-66
2023/03/13 14:33:14;;;;;;;1999.90;999.90;;;;;;;;;;5016165;28;20228;-66
2023/03/13 14:35:41;;;;;;;1999.90;999.90;;;;;;;;;;5008287;28;20208;-66
2023/03/13 14:38:16;;;;;;;1999.90;999.90;;;;;;;;;;5003673;28;20196;-67
2023/03/13 14:40:43;;;;;;;1999.90;999.90;;;;;;;;;;5008079;28;20222;-67
2023/03/13 14:43:18;;;;;;;1999.90;999.90;;;;;;;;;;5004840;28;20208;-63
2023/03/13 14:45:45;;;;;;;1999.90;999.90;;;;;;;;;;5014567;28;20202;-61
2023/03/13 14:48:16;;;;;;;1999.90;999.90;;;;;;;;;;5018683;28;20672;-62
2023/03/13 14:50:43;;;;;;;1999.90;999.90;;;;;;;;;;5005618;28;20235;-63
2023/03/13 14:53:14;;;;;;;1999.90;999.90;;;;;;;;;;5011919;28;20219;-61
2023/03/13 14:55:41;;;;;;;1999.90;999.90;;;;;;;;;;5010503;28;20207;-61
2023/03/13 14:58:23;;;;;;;1999.90;999.90;;;;;;;;;;5011530;28;20200;-61
2023/03/13 15:00:50;;;;;;;1999.90;999.90;;;;;;;;;;5013470;28;20220;-61
2023/03/13 15:03:23;;;;;;;1999.90;999.90;;;;;;;;;;5011275;28;20573;-59
2023/03/13 15:05:51;;;;;;;1999.90;999.90;;;;;;;;;;5003448;28;20192;-60
2023/03/13 15:08:20;;;;;;;1999.90;999.90;;;;;;;;;;5017580;28;20204;-60
2023/03/13 15:10:48;;;;;;;1999.90;999.90;;;;;;;;;;5006946;28;20227;-60
2023/03/13 15:13:15;;;;;;;1999.90;999.90;;;;;;;;;;5018021;28;20677;-60
2023/03/13 15:15:43;;;;;;;1999.90;999.90;;;;;;;;;;5011304;28;20208;-60
2023/03/13 15:18:16;;;;;;;1999.90;999.90;;;;;;;;;;5018081;28;20211;-60
2023/03/13 15:20:43;;;;;;;1999.90;999.90;;;;;;;;;;5006486;28;20212;-60
2023/03/13 15:23:11;;;;;;;1999.90;999.90;;;;;;;;;;5015614;28;20234;-61
2023/03/13 15:25:40;;;;;;;1999.90;999.90;;;;;;;;;;5010936;28;20203;-60
2023/03/13 15:28:14;;;;;;;1999.90;999.90;;;;;;;;;;5008819;28;20204;-60
2023/03/13 15:30:41;;;;;;;1999.90;999.90;;;;;;;;;;5011203;28;20693;-60
2023/03/13 15:33:11;;;;;;;1999.90;999.90;;;;;;;;;;5012972;28;20344;-60
2023/03/13 15:35:38;;;;;;;1999.90;999.90;;;;;;;;;;5011468;28;20219;-60
2023/03/13 15:38:10;;;;;;;1999.90;999.90;;;;;;;;;;5006640;28;20213;-60
2023/03/13 15:40:37;;;;;;;1999.90;999.90;;;;;;;;;;5006318;28;20216;-60
2023/03/13 15:43:06;;;;;;;1999.90;999.90;;;;;;;;;;5010717;28;20215;-60
2023/03/13 15:45:33;;;;;;;1999.90;999.90;;;;;;;;;;5010231;28;20207;-61
2023/03/13 15:48:00;;;;;;;1999.90;999.90;;;;;;;;;;5011149;28;20211;-61
2023/03/13 15:50:29;;;;;;;1999.90;999.90;;;;;;;;;;5012177;28;20354;-66
2023/03/13 15:52:56;;;;;;;1999.90;999.90;;;;;;;;;;5019514;28;20223;-65
2023/03/13 15:55:24;;;;;;;1999.90;999.90;;;;;;;;;;5016992;28;20574;-62
2023/03/13 15:57:52;;;;;;;1999.90;999.90;;;;;;;;;;5015022;28;20202;-60
2023/03/13 16:00:21;;;;;;;1999.90;999.90;;;;;;;;;;5017126;28;20577;-64
2023/03/13 16:02:48;;;;;;;1999.90;999.90;;;;;;;;;;5005121;28;20212;-60
2023/03/13 16:05:16;;;;;;;1999.90;999.90;;;;;;;;;;5020052;28;20206;-60